createdAt,value
2018-01-20T00:01:20.512Z,3.90
2018-01-20T00:03:48.444Z,3.90
2018-01-20T00:06:16.188Z,3.90
2018-01-20T00:08:43.856Z,3.90
2018-01-20T00:11:23.491Z,3.90
2018-01-20T00:13:51.016Z,4.00
2018-01-20T00:16:19.321Z,3.90
2018-01-20T00:18:46.886Z,3.90
2018-01-20T00:21:14.691Z,3.90
2018-01-20T00:23:43.078Z,3.90
2018-01-20T00:26:16.998Z,3.90
2018-01-20T00:28:45.647Z,3.80
2018-01-20T00:31:14.076Z,3.80
2018-01-20T00:33:42.063Z,3.80
2018-01-20T00:36:09.777Z,3.90
2018-01-20T00:38:37.735Z,4.00
2018-01-20T00:41:05.296Z,4.00
2018-01-20T00:43:32.809Z,4.00
2018-01-20T00:46:00.293Z,4.00
2018-01-20T00:48:28.078Z,4.00
2018-01-20T00:50:55.571Z,4.00
2018-01-20T00:53:23.023Z,4.00
2018-01-20T00:55:51.884Z,4.10
2018-01-20T00:58:19.488Z,4.00
2018-01-20T01:00:47.857Z,4.10
2018-01-20T01:03:15.531Z,4.00
2018-01-20T01:05:43.919Z,3.90
2018-01-20T01:08:12.361Z,3.80
2018-01-20T01:10:39.959Z,3.80
2018-01-20T01:13:08.240Z,3.70
2018-01-20T01:15:36.552Z,3.70
2018-01-20T01:18:04.134Z,3.70
2018-01-20T01:20:31.586Z,3.60
2018-01-20T01:22:59.156Z,3.60
2018-01-20T01:25:26.689Z,3.60
2018-01-20T01:27:54.314Z,3.60
2018-01-20T01:30:22.646Z,3.50
2018-01-20T01:39:38.310Z,3.40
2018-01-20T01:42:05.831Z,3.30
2018-01-20T01:44:33.335Z,3.30
2018-01-20T01:47:01.754Z,3.20
2018-01-20T01:49:30.266Z,3.10
2018-01-20T01:51:57.748Z,3.10
2018-01-20T01:54:26.069Z,2.80
2018-01-20T01:56:55.276Z,2.80
2018-01-20T01:59:22.868Z,2.80
2018-01-20T02:01:50.661Z,2.80
2018-01-20T02:04:18.387Z,2.80
2018-01-20T02:06:45.851Z,2.80
2018-01-20T02:09:13.515Z,2.80
2018-01-20T02:11:41.196Z,2.90
2018-01-20T02:14:09.158Z,2.80
2018-01-20T02:16:37.443Z,2.80
2018-01-20T02:19:04.899Z,2.80
2018-01-20T02:21:32.509Z,2.80
2018-01-20T02:24:00.278Z,2.80
2018-01-20T02:26:28.118Z,2.80
2018-01-20T02:28:56.344Z,2.80
2018-01-20T02:31:23.848Z,2.80
2018-01-20T02:33:52.097Z,2.80
2018-01-20T02:36:19.754Z,2.70
2018-01-20T02:38:47.292Z,2.80
2018-01-20T02:41:14.850Z,2.80
2018-01-20T02:43:42.321Z,2.80
2018-01-20T02:46:09.919Z,2.80
2018-01-20T02:48:38.246Z,2.90
2018-01-20T02:51:05.697Z,2.90
2018-01-20T02:53:33.187Z,2.90
2018-01-20T02:56:00.656Z,2.80
2018-01-20T02:58:28.113Z,2.80
2018-01-20T03:00:55.585Z,2.80
2018-01-20T03:03:24.007Z,2.80
2018-01-20T03:05:51.523Z,2.80
2018-01-20T03:08:19.769Z,2.90
2018-01-20T03:10:47.409Z,2.90
2018-01-20T03:13:14.891Z,3.00
2018-01-20T03:15:42.474Z,3.00
2018-01-20T03:18:09.957Z,3.00
2018-01-20T03:20:37.419Z,3.00
2018-01-20T03:23:05.022Z,3.00
2018-01-20T03:25:32.721Z,3.10
2018-01-20T03:28:00.202Z,3.10
2018-01-20T03:30:28.447Z,3.10
2018-01-20T03:32:56.015Z,3.10
2018-01-20T03:35:23.567Z,3.10
2018-01-20T03:37:51.056Z,3.10
2018-01-20T03:40:19.387Z,3.10
2018-01-20T03:42:46.827Z,3.10
2018-01-20T03:45:14.311Z,3.10
2018-01-20T03:47:41.790Z,3.20
2018-01-20T03:50:09.350Z,3.20
2018-01-20T03:52:37.612Z,3.10
2018-01-20T03:55:05.075Z,3.10
2018-01-20T03:57:33.307Z,3.10
2018-01-20T04:00:00.866Z,3.10
2018-01-20T04:02:29.193Z,3.20
2018-01-20T04:04:56.883Z,3.10
2018-01-20T04:07:25.146Z,3.10
2018-01-20T04:09:53.393Z,3.10
2018-01-20T04:12:20.874Z,3.10
2018-01-20T04:14:48.432Z,3.20
2018-01-20T04:17:15.892Z,3.20
2018-01-20T04:19:43.450Z,3.20
2018-01-20T04:22:11.011Z,3.20
2018-01-20T04:24:38.514Z,3.20
2018-01-20T04:27:05.973Z,3.10
2018-01-20T04:29:33.843Z,3.10
2018-01-20T04:32:01.359Z,3.10
2018-01-20T04:34:28.959Z,3.10
2018-01-20T04:36:56.623Z,3.10
2018-01-20T04:39:24.133Z,3.00
2018-01-20T04:41:51.589Z,3.00
2018-01-20T04:44:19.092Z,3.10
2018-01-20T04:46:46.615Z,3.10
2018-01-20T04:49:14.088Z,3.10
2018-01-20T04:51:42.533Z,3.20
2018-01-20T04:54:10.206Z,3.20
2018-01-20T04:56:37.802Z,3.20
2018-01-20T04:59:06.099Z,3.40
2018-01-20T05:01:33.707Z,3.40
2018-01-20T05:04:01.204Z,3.50
2018-01-20T05:06:29.021Z,3.50
2018-01-20T05:08:56.479Z,3.60
2018-01-20T05:11:24.138Z,3.70
2018-01-20T05:13:51.696Z,3.60
2018-01-20T05:16:19.180Z,3.70
2018-01-20T05:18:46.650Z,3.70
2018-01-20T05:21:14.197Z,3.80
2018-01-20T05:23:41.667Z,3.70
2018-01-20T05:26:10.237Z,3.70
2018-01-20T05:28:37.748Z,3.60
2018-01-20T05:31:05.328Z,3.60
2018-01-20T05:33:32.815Z,3.60
2018-01-20T05:36:00.353Z,3.70
2018-01-20T05:38:27.858Z,3.70
2018-01-20T05:40:56.098Z,3.70
2018-01-20T05:43:23.648Z,3.70
2018-01-20T05:45:51.143Z,3.70
2018-01-20T05:48:19.482Z,3.80
2018-01-20T05:50:46.984Z,3.70
2018-01-20T05:53:15.222Z,3.80
2018-01-20T05:55:42.713Z,3.70
2018-01-20T05:58:11.296Z,3.70
2018-01-20T06:00:39.152Z,3.70
2018-01-20T06:03:06.931Z,3.70
2018-01-20T06:05:35.304Z,3.60
2018-01-20T06:08:02.768Z,3.60
2018-01-20T06:10:31.068Z,3.60
2018-01-20T06:12:59.031Z,3.60
2018-01-20T06:15:27.396Z,3.70
2018-01-20T06:17:54.896Z,3.60
2018-01-20T06:20:22.378Z,3.70
2018-01-20T06:22:49.858Z,3.70
2018-01-20T06:25:17.425Z,3.70
2018-01-20T06:27:45.804Z,3.80
2018-01-20T06:30:13.377Z,3.80
2018-01-20T06:32:41.657Z,3.80
2018-01-20T06:35:10.071Z,3.80
2018-01-20T06:37:37.578Z,3.80
2018-01-20T06:40:05.551Z,3.80
2018-01-20T06:42:33.075Z,3.70
2018-01-20T06:45:00.566Z,3.70
2018-01-20T06:47:28.827Z,3.60
2018-01-20T06:49:56.408Z,3.60
2018-01-20T06:52:24.043Z,3.60
2018-01-20T06:54:51.805Z,3.50
2018-01-20T06:57:22.172Z,3.50
2018-01-20T06:59:49.775Z,3.40
2018-01-20T07:02:17.237Z,3.40
2018-01-20T07:04:44.889Z,3.40
2018-01-20T07:07:12.460Z,3.30
2018-01-20T07:09:39.986Z,3.30
2018-01-20T07:12:08.251Z,3.30
2018-01-20T07:14:36.526Z,3.30
2018-01-20T07:17:04.068Z,3.30
2018-01-20T07:19:31.620Z,3.40
2018-01-20T07:21:59.199Z,3.40
2018-01-20T07:24:26.685Z,3.40
2018-01-20T07:26:55.158Z,3.30
2018-01-20T07:29:23.415Z,3.40
2018-01-20T07:31:50.927Z,3.40
2018-01-20T07:34:18.847Z,3.40
2018-01-20T07:36:47.127Z,3.50
2018-01-20T07:39:14.674Z,3.50
2018-01-20T07:41:42.504Z,3.50
2018-01-20T07:44:10.179Z,3.60
2018-01-20T07:46:37.725Z,3.60
2018-01-20T07:49:05.296Z,3.70
2018-01-20T07:51:32.814Z,3.70
2018-01-20T07:54:01.119Z,3.70
2018-01-20T07:56:28.729Z,3.70
2018-01-20T07:58:56.703Z,3.70
2018-01-20T08:01:24.671Z,3.70
2018-01-20T08:03:52.191Z,3.60
2018-01-20T08:06:19.702Z,3.60
2018-01-20T08:08:47.944Z,3.80
2018-01-20T08:11:15.579Z,3.70
2018-01-20T08:13:43.203Z,3.80
2018-01-20T08:16:11.483Z,3.80
2018-01-20T08:18:39.765Z,3.80
2018-01-20T08:21:08.084Z,3.90
2018-01-20T08:23:36.171Z,4.00
2018-01-20T08:26:03.652Z,3.90
2018-01-20T08:28:31.113Z,3.90
2018-01-20T08:30:58.628Z,4.10
2018-01-20T08:33:26.145Z,4.10
2018-01-20T08:35:54.178Z,4.10
2018-01-20T08:38:21.682Z,4.20
2018-01-20T08:40:50.139Z,4.30
2018-01-20T08:43:17.631Z,4.30
2018-01-20T08:45:45.266Z,4.30
2018-01-20T08:48:12.875Z,4.30
2018-01-20T08:50:40.311Z,4.30
2018-01-20T08:53:07.916Z,4.30
2018-01-20T08:55:35.401Z,4.40
2018-01-20T08:58:02.969Z,4.30
2018-01-20T09:00:31.354Z,4.40
2018-01-20T09:02:59.629Z,4.50
2018-01-20T09:05:27.093Z,4.40
2018-01-20T09:07:55.368Z,4.50
2018-01-20T09:10:23.200Z,4.50
2018-01-20T09:12:51.008Z,4.60
2018-01-20T09:15:19.438Z,4.70
2018-01-20T09:17:47.013Z,4.70
2018-01-20T09:20:14.697Z,4.80
2018-01-20T09:22:43.024Z,4.80
2018-01-20T09:25:11.146Z,4.80
2018-01-20T09:27:38.985Z,4.90
2018-01-20T09:30:06.452Z,5.10
2018-01-20T09:32:34.028Z,5.10
2018-01-20T09:35:01.607Z,5.30
2018-01-20T09:37:29.895Z,5.40
2018-01-20T09:39:57.426Z,5.40
2018-01-20T09:42:25.104Z,5.40
2018-01-20T09:44:53.256Z,5.30
2018-01-20T09:47:20.806Z,5.20
2018-01-20T09:49:48.284Z,5.30
2018-01-20T09:52:15.907Z,5.40
2018-01-20T09:54:43.412Z,5.50
2018-01-20T09:57:11.694Z,5.70
2018-01-20T09:59:39.462Z,5.70
2018-01-20T10:04:45.711Z,5.90
2018-01-20T10:07:13.159Z,5.90
2018-01-20T10:09:40.975Z,5.80
2018-01-20T10:12:08.819Z,5.90
2018-01-20T10:14:36.949Z,5.90
2018-01-20T10:17:04.577Z,5.90
2018-01-20T10:19:32.502Z,5.90
2018-01-20T10:22:00.053Z,5.80
2018-01-20T10:24:28.146Z,6.00
2018-01-20T10:26:56.697Z,6.10
2018-01-20T10:29:24.420Z,6.10
2018-01-20T10:31:52.093Z,6.10
2018-01-20T10:34:20.262Z,6.30
2018-01-20T10:36:47.967Z,6.40
2018-01-20T10:39:16.456Z,6.50
2018-01-20T10:41:44.167Z,6.30
2018-01-20T10:44:12.277Z,6.30
2018-01-20T10:46:41.440Z,6.00
2018-01-20T10:49:09.832Z,5.90
2018-01-20T10:51:38.162Z,6.00
2018-01-20T10:54:06.427Z,6.00
2018-01-20T10:56:33.997Z,6.00
2018-01-20T10:59:01.451Z,5.90
2018-01-20T11:01:29.022Z,5.90
2018-01-20T11:03:56.859Z,5.90
2018-01-20T11:06:24.860Z,6.00
2018-01-20T11:08:52.451Z,5.80
2018-01-20T11:11:20.068Z,5.80
2018-01-20T11:13:47.700Z,5.80
2018-01-20T11:16:15.575Z,5.80
2018-01-20T11:18:43.194Z,5.80
2018-01-20T11:21:11.422Z,6.00
2018-01-20T11:23:38.903Z,6.00
2018-01-20T11:26:06.540Z,6.10
2018-01-20T11:28:34.193Z,6.10
2018-01-20T11:31:01.783Z,6.10
2018-01-20T11:33:29.473Z,6.10
2018-01-20T11:35:57.487Z,5.90
2018-01-20T11:38:25.374Z,5.90
2018-01-20T11:40:52.911Z,6.00
2018-01-20T11:43:20.517Z,6.10
2018-01-20T11:45:48.560Z,6.10
2018-01-20T11:48:16.427Z,6.10
2018-01-20T11:50:43.899Z,6.20
2018-01-20T11:53:11.570Z,6.30
2018-01-20T11:55:40.482Z,6.20
2018-01-20T11:58:09.338Z,6.30
2018-01-20T12:00:36.876Z,6.30
2018-01-20T12:03:04.639Z,6.30
2018-01-20T12:05:33.004Z,6.50
2018-01-20T12:08:01.753Z,6.60
2018-01-20T12:10:29.756Z,6.60
2018-01-20T12:12:57.399Z,6.50
2018-01-20T12:15:25.034Z,6.50
2018-01-20T12:17:52.539Z,6.60
2018-01-20T12:20:20.817Z,6.60
2018-01-20T12:22:48.761Z,6.60
2018-01-20T12:25:16.357Z,6.70
2018-01-20T12:27:44.684Z,6.50
2018-01-20T12:30:12.501Z,6.50
2018-01-20T12:32:40.534Z,6.40
2018-01-20T12:35:08.099Z,6.40
2018-01-20T12:37:35.871Z,6.40
2018-01-20T12:40:05.015Z,6.20
2018-01-20T12:42:34.324Z,6.20
2018-01-20T12:45:02.061Z,6.20
2018-01-20T12:47:29.618Z,6.30
2018-01-20T12:49:58.702Z,6.40
2018-01-20T12:52:27.265Z,6.50
2018-01-20T12:54:54.945Z,6.40
2018-01-20T12:57:22.501Z,6.50
2018-01-20T12:59:50.001Z,6.50
2018-01-20T13:02:17.689Z,6.60
2018-01-20T13:04:45.201Z,6.40
2018-01-20T13:07:13.509Z,6.40
2018-01-20T13:09:41.043Z,6.40
2018-01-20T13:12:09.695Z,6.50
2018-01-20T13:14:37.155Z,6.50
2018-01-20T13:17:04.947Z,6.40
2018-01-20T13:19:33.360Z,6.50
2018-01-20T13:22:00.913Z,6.40
2018-01-20T13:24:28.548Z,6.60
2018-01-20T13:26:56.311Z,6.50
2018-01-20T13:29:24.699Z,6.50
2018-01-20T13:31:53.021Z,6.30
2018-01-20T13:34:20.585Z,6.30
2018-01-20T13:36:49.065Z,6.30
2018-01-20T13:39:16.841Z,6.30
2018-01-20T13:41:44.488Z,6.20
2018-01-20T13:44:12.892Z,6.20
2018-01-20T13:46:40.689Z,6.20
2018-01-20T13:49:09.021Z,6.30
2018-01-20T13:51:36.565Z,6.20
2018-01-20T13:54:04.884Z,6.20
2018-01-20T13:56:32.469Z,6.20
2018-01-20T13:59:01.418Z,6.00
2018-01-20T14:01:29.211Z,6.00
2018-01-20T14:03:58.069Z,5.90
2018-01-20T14:06:25.541Z,5.90
2018-01-20T14:08:53.568Z,5.80
2018-01-20T14:11:22.104Z,5.70
2018-01-20T14:13:50.102Z,5.70
2018-01-20T14:16:18.824Z,5.50
2018-01-20T14:18:46.607Z,5.40
2018-01-20T14:21:14.328Z,5.40
2018-01-20T14:23:41.941Z,5.40
2018-01-20T14:26:10.082Z,5.30
2018-01-20T14:28:37.850Z,5.30
2018-01-20T14:31:05.710Z,5.20
2018-01-20T14:33:33.827Z,5.20
2018-01-20T14:36:03.190Z,5.10
2018-01-20T14:38:30.835Z,5.10
2018-01-20T14:40:59.156Z,5.10
2018-01-20T14:43:26.658Z,5.10
2018-01-20T14:45:56.099Z,5.20
2018-01-20T14:48:23.856Z,5.20
2018-01-20T14:50:53.313Z,5.20
2018-01-20T14:53:21.491Z,5.10
2018-01-20T14:55:49.011Z,5.00
2018-01-20T14:58:16.613Z,5.00
2018-01-20T15:00:44.587Z,5.00
2018-01-20T15:03:13.601Z,5.00
2018-01-20T15:05:41.830Z,5.00
2018-01-20T15:08:09.517Z,5.00
2018-01-20T15:10:37.901Z,5.00
2018-01-20T15:13:05.520Z,5.00
2018-01-20T15:15:33.439Z,5.00
2018-01-20T15:18:01.668Z,5.00
2018-01-20T15:20:30.762Z,4.90
2018-01-20T15:22:58.274Z,4.90
2018-01-20T15:25:26.534Z,4.70
2018-01-20T15:27:55.061Z,4.80
2018-01-20T15:30:22.909Z,4.70
2018-01-20T15:32:51.756Z,4.80
2018-01-20T15:35:19.441Z,4.80
2018-01-20T15:37:47.214Z,4.80
2018-01-20T15:40:15.844Z,4.70
2018-01-20T15:42:43.656Z,4.70
2018-01-20T15:45:11.177Z,4.70
2018-01-20T15:47:40.355Z,4.60
2018-01-20T15:50:09.200Z,4.60
2018-01-20T15:52:36.834Z,4.60
2018-01-20T15:55:05.096Z,4.70
2018-01-20T15:57:33.535Z,4.70
2018-01-20T16:00:01.389Z,4.70
2018-01-20T16:02:28.967Z,4.70
2018-01-20T16:04:57.261Z,4.70
2018-01-20T16:07:26.011Z,4.60
2018-01-20T16:09:54.253Z,4.60
2018-01-20T16:12:22.490Z,4.30
2018-01-20T16:14:52.185Z,4.30
2018-01-20T16:17:20.660Z,4.40
2018-01-20T16:19:48.737Z,4.30
2018-01-20T16:22:17.576Z,4.30
2018-01-20T16:24:45.394Z,4.30
2018-01-20T16:27:13.296Z,4.30
2018-01-20T16:29:41.171Z,4.30
2018-01-20T16:32:08.841Z,4.40
2018-01-20T16:34:36.320Z,4.30
2018-01-20T16:37:04.865Z,4.30
2018-01-20T16:39:32.512Z,4.30
2018-01-20T16:42:00.718Z,4.20
2018-01-20T16:44:29.721Z,4.30
2018-01-20T16:46:57.952Z,4.30
2018-01-20T16:49:25.854Z,4.30
2018-01-20T16:51:54.588Z,4.40
2018-01-20T16:54:22.708Z,4.30
2018-01-20T16:56:50.147Z,4.40
2018-01-20T16:59:18.338Z,4.40
2018-01-20T17:01:45.819Z,4.40
2018-01-20T17:04:14.063Z,4.40
2018-01-20T17:06:41.800Z,4.40
2018-01-20T17:09:09.268Z,4.40
2018-01-20T17:11:36.972Z,4.40
2018-01-20T17:14:05.305Z,4.50
2018-01-20T17:16:32.818Z,4.40
2018-01-20T17:19:00.388Z,4.50
2018-01-20T17:21:29.836Z,4.60
2018-01-20T17:23:59.227Z,4.60
2018-01-20T17:26:27.569Z,4.60
2018-01-20T17:28:55.494Z,4.60
2018-01-20T17:31:22.996Z,4.50
2018-01-20T17:33:50.700Z,4.50
2018-01-20T17:36:18.975Z,4.50
2018-01-20T17:38:46.539Z,4.50
2018-01-20T17:41:14.627Z,4.60
2018-01-20T17:43:42.812Z,4.60
2018-01-20T17:46:10.515Z,4.60
2018-01-20T17:48:39.456Z,4.60
2018-01-20T17:51:07.033Z,4.60
2018-01-20T17:53:34.676Z,4.60
2018-01-20T17:56:02.634Z,4.60
2018-01-20T17:58:30.127Z,4.60
2018-01-20T18:00:57.683Z,4.60
2018-01-20T18:03:25.394Z,4.50
2018-01-20T18:05:53.196Z,4.50
2018-01-20T18:08:20.821Z,4.50
2018-01-20T18:10:48.621Z,4.40
2018-01-20T18:13:16.276Z,4.40
2018-01-20T18:15:44.133Z,4.40
2018-01-20T18:18:11.636Z,4.40
2018-01-20T18:20:39.365Z,4.40
2018-01-20T18:23:07.243Z,4.30
2018-01-20T18:25:34.754Z,4.40
2018-01-20T18:28:03.031Z,4.40
2018-01-20T18:30:30.535Z,4.40
2018-01-20T18:32:58.019Z,4.40
2018-01-20T18:35:25.570Z,4.50
2018-01-20T18:37:53.136Z,4.50
2018-01-20T18:40:21.426Z,4.50
2018-01-20T18:42:48.951Z,4.40
2018-01-20T18:45:16.513Z,4.40
2018-01-20T18:47:44.631Z,4.40
2018-01-20T18:50:12.345Z,4.40
2018-01-20T18:52:39.968Z,4.30
2018-01-20T18:55:08.969Z,4.30
2018-01-20T18:57:37.620Z,4.40
2018-01-20T19:00:05.280Z,4.30
2018-01-20T19:02:34.036Z,4.40
2018-01-20T19:05:02.034Z,4.40
2018-01-20T19:07:29.732Z,4.40
2018-01-20T19:09:57.568Z,4.40
2018-01-20T19:12:25.400Z,4.40
2018-01-20T19:14:52.911Z,4.40
2018-01-20T19:17:21.343Z,4.40
2018-01-20T19:19:49.224Z,4.40
2018-01-20T19:22:17.591Z,4.40
2018-01-20T19:24:45.385Z,4.40
2018-01-20T19:27:13.332Z,4.40
2018-01-20T19:29:40.849Z,4.40
2018-01-20T19:32:09.086Z,4.40
2018-01-20T19:34:36.856Z,4.40
2018-01-20T19:37:05.574Z,4.40
2018-01-20T19:39:35.647Z,4.40
2018-01-20T19:42:03.315Z,4.40
2018-01-20T19:44:30.831Z,4.40
2018-01-20T19:46:58.677Z,4.40
2018-01-20T19:49:27.143Z,4.40
2018-01-20T19:51:55.851Z,4.40
2018-01-20T19:54:24.114Z,4.50
2018-01-20T19:56:52.386Z,4.50
2018-01-20T19:59:21.227Z,4.40
2018-01-20T20:01:48.701Z,4.40
2018-01-20T20:04:17.237Z,4.40
2018-01-20T20:06:45.703Z,4.40
2018-01-20T20:09:13.831Z,4.30
2018-01-20T20:11:41.626Z,4.40
2018-01-20T20:14:09.650Z,4.40
2018-01-20T20:16:38.095Z,4.30
2018-01-20T20:19:05.629Z,4.30
2018-01-20T20:21:33.567Z,4.30
2018-01-20T20:24:01.908Z,4.30
2018-01-20T20:26:29.382Z,4.30
2018-01-20T20:28:57.357Z,4.30
2018-01-20T20:31:25.806Z,4.30
2018-01-20T20:33:53.946Z,4.30
2018-01-20T20:36:21.508Z,4.30
2018-01-20T20:38:49.021Z,4.30
2018-01-20T20:41:17.448Z,4.20
2018-01-20T20:43:45.722Z,4.20
2018-01-20T20:46:13.211Z,4.20
2018-01-20T20:48:41.120Z,4.10
2018-01-20T20:51:09.795Z,4.10
2018-01-20T20:53:38.532Z,4.00
2018-01-20T20:56:05.986Z,4.00
2018-01-20T20:58:33.729Z,4.00
2018-01-20T21:01:02.503Z,4.00
2018-01-20T21:03:30.873Z,3.90
2018-01-20T21:05:59.186Z,3.90
2018-01-20T21:08:26.747Z,3.90
2018-01-20T21:10:54.657Z,3.90
2018-01-20T21:13:22.339Z,3.90
2018-01-20T21:15:50.118Z,3.90
2018-01-20T21:18:18.849Z,3.90
2018-01-20T21:20:46.409Z,3.90
2018-01-20T21:23:14.571Z,3.90
2018-01-20T21:25:42.258Z,3.90
2018-01-20T21:28:09.892Z,3.80
2018-01-20T21:30:37.561Z,3.80
2018-01-20T21:33:06.058Z,3.80
2018-01-20T21:35:34.025Z,3.80
2018-01-20T21:38:01.549Z,3.80
2018-01-20T21:40:29.764Z,3.80
2018-01-20T21:42:58.475Z,3.70
2018-01-20T21:45:26.522Z,3.70
2018-01-20T21:47:54.090Z,3.70
2018-01-20T21:50:21.728Z,3.60
2018-01-20T21:52:49.227Z,3.60
2018-01-20T21:55:17.053Z,3.50
2018-01-20T21:57:44.563Z,3.50
2018-01-20T22:00:12.325Z,3.50
2018-01-20T22:02:40.450Z,3.50
2018-01-20T22:05:08.167Z,3.60
2018-01-20T22:07:35.779Z,3.60
2018-01-20T22:10:03.327Z,3.50
2018-01-20T22:12:31.209Z,3.60
2018-01-20T22:14:59.784Z,3.60
2018-01-20T22:17:29.941Z,3.60
2018-01-20T22:19:58.278Z,3.60
2018-01-20T22:22:25.923Z,3.60
2018-01-20T22:24:53.571Z,3.60
2018-01-20T22:27:21.061Z,3.60
2018-01-20T22:29:48.928Z,3.70
2018-01-20T22:32:16.445Z,3.70
2018-01-20T22:34:44.017Z,3.70
